Time,TemperatureF,DewpointF,PressureIn,WindDirection,WindDirectionDegrees,WindSpeedMPH,WindSpeedGustMPH,Humidity,HourlyPrecipIn,Conditions,Clouds,dailyrainin,SoftwareType,DateUTC
2013-01-10 00:09:00,70.9,70.0,30.30,East,95,2.0,4.0,97,0.00,,,0.00,weatherlink.com 1.10,2013-01-10 05:09:00,
2013-01-10 00:24:00,70.9,70.0,30.29,ENE,70,0.0,5.0,97,0.00,,,0.00,weatherlink.com 1.10,2013-01-10 05:24:00,
2013-01-10 00:45:00,70.8,70.0,30.29,NE,51,3.0,5.0,97,0.00,,,0.00,weatherlink.com 1.10,2013-01-10 05:45:00,
2013-01-10 00:54:00,70.7,70.0,30.29,ESE,104,2.0,8.0,97,0.00,,,0.00,weatherlink.com 1.10,2013-01-10 05:54:00,
2013-01-10 01:09:00,70.9,70.0,30.29,East,98,0.0,4.0,97,0.00,,,0.00,weatherlink.com 1.10,2013-01-10 06:09:00,
2013-01-10 01:24:00,70.9,70.0,30.29,East,82,3.0,5.0,97,0.00,,,0.00,weatherlink.com 1.10,2013-01-10 06:24:00,
2013-01-10 01:39:00,71.0,70.0,30.29,ENE,74,0.0,4.0,97,0.00,,,0.00,weatherlink.com 1.10,2013-01-10 06:39:00,
2013-01-10 01:54:00,71.0,70.0,30.29,ESE,118,1.0,5.0,97,0.00,,,0.00,weatherlink.com 1.10,2013-01-10 06:54:00,
2013-01-10 02:09:00,71.0,70.0,30.29,ENE,72,6.0,6.0,97,0.00,,,0.00,weatherlink.com 1.10,2013-01-10 07:09:00,
2013-01-10 02:24:00,70.9,70.0,30.28,SE,129,2.0,7.0,97,0.00,,,0.00,weatherlink.com 1.10,2013-01-10 07:24:00,
2013-01-10 02:40:00,70.8,70.0,30.28,SE,134,0.0,7.0,97,0.00,,,0.00,weatherlink.com 1.10,2013-01-10 07:40:00,
2013-01-10 02:55:00,70.6,70.0,30.28,East,80,5.0,5.0,97,0.00,,,0.00,weatherlink.com 1.10,2013-01-10 07:55:00,
2013-01-10 03:10:00,70.5,70.0,30.28,ENE,64,1.0,5.0,97,0.00,,,0.00,weatherlink.com 1.10,2013-01-10 08:10:00,
2013-01-10 03:25:00,70.4,70.0,30.28,North,5,2.0,7.0,97,0.00,,,0.00,weatherlink.com 1.10,2013-01-10 08:25:00,
2013-01-10 03:40:00,70.3,69.0,30.27,ENE,72,6.0,8.0,97,0.00,,,0.00,weatherlink.com 1.10,2013-01-10 08:40:00,
2013-01-10 03:55:00,70.2,70.0,30.27,SE,124,1.0,8.0,98,0.00,,,0.00,weatherlink.com 1.10,2013-01-10 08:55:00,
2013-01-10 04:10:00,70.1,70.0,30.27,East,101,1.0,5.0,98,0.00,,,0.00,weatherlink.com 1.10,2013-01-10 09:10:00,
2013-01-10 04:25:00,70.0,69.0,30.26,ESE,102,2.0,8.0,98,0.00,,,0.00,weatherlink.com 1.10,2013-01-10 09:25:00,
2013-01-10 04:40:00,69.8,69.0,30.26,ENE,74,3.0,6.0,98,0.00,,,0.00,weatherlink.com 1.10,2013-01-10 09:40:00,
2013-01-10 04:55:00,69.7,69.0,30.26,ENE,65,3.0,6.0,98,0.00,,,0.00,weatherlink.com 1.10,2013-01-10 09:55:00,
2013-01-10 05:10:00,69.6,69.0,30.25,ESE,116,2.0,5.0,98,0.00,,,0.00,weatherlink.com 1.10,2013-01-10 10:10:00,
2013-01-10 05:25:00,69.5,69.0,30.25,ENE,70,2.0,6.0,98,0.00,,,0.00,weatherlink.com 1.10,2013-01-10 10:25:00,
2013-01-10 05:40:00,69.4,69.0,30.26,ENE,69,2.0,6.0,98,0.00,,,0.00,weatherlink.com 1.10,2013-01-10 10:40:00,
2013-01-10 05:55:00,69.2,69.0,30.26,East,84,3.0,5.0,98,0.00,,,0.00,weatherlink.com 1.10,2013-01-10 10:55:00,
2013-01-10 06:10:00,69.0,69.0,30.26,ENE,77,2.0,5.0,98,0.00,,,0.00,weatherlink.com 1.10,2013-01-10 11:10:00,
2013-01-10 06:25:00,69.0,69.0,30.27,ESE,103,2.0,7.0,98,0.00,,,0.00,weatherlink.com 1.10,2013-01-10 11:25:00,
2013-01-10 06:40:00,68.9,69.0,30.27,East,98,0.0,5.0,99,0.00,,,0.00,weatherlink.com 1.10,2013-01-10 11:40:00,
2013-01-10 06:55:00,68.9,69.0,30.28,ENE,62,2.0,5.0,99,0.00,,,0.00,weatherlink.com 1.10,2013-01-10 11:55:00,
2013-01-10 07:10:00,68.8,69.0,30.28,East,89,1.0,2.0,99,0.00,,,0.00,weatherlink.com 1.10,2013-01-10 12:10:00,
2013-01-10 07:25:00,68.7,68.0,30.28,ENE,59,2.0,4.0,98,0.00,,,0.00,weatherlink.com 1.10,2013-01-10 12:25:00,
2013-01-10 07:40:00,68.8,69.0,30.28,North,6,0.0,5.0,99,0.00,,,0.00,weatherlink.com 1.10,2013-01-10 12:40:00,
2013-01-10 07:55:00,68.8,69.0,30.29,East,90,0.0,4.0,99,0.00,,,0.00,weatherlink.com 1.10,2013-01-10 12:55:00,
2013-01-10 08:10:00,69.0,69.0,30.29,ENE,66,3.0,5.0,99,0.00,,,0.00,weatherlink.com 1.10,2013-01-10 13:10:00,
2013-01-10 08:25:00,69.1,69.0,30.29,East,83,2.0,5.0,98,0.00,,,0.00,weatherlink.com 1.10,2013-01-10 13:25:00,
2013-01-10 08:40:00,69.4,69.0,30.29,East,79,5.0,8.0,98,0.00,,,0.00,weatherlink.com 1.10,2013-01-10 13:40:00,
2013-01-10 08:55:00,70.1,69.0,30.30,East,84,1.0,6.0,97,0.00,,,0.00,weatherlink.com 1.10,2013-01-10 13:55:00,
2013-01-10 09:10:00,71.0,70.0,30.29,ENE,68,1.0,5.0,95,0.00,,,0.00,weatherlink.com 1.10,2013-01-10 14:10:00,
2013-01-10 09:25:00,72.1,70.0,30.29,SE,127,4.0,9.0,93,0.00,,,0.00,weatherlink.com 1.10,2013-01-10 14:25:00,
2013-01-10 09:40:00,73.1,70.0,30.29,NE,54,3.0,7.0,91,0.00,,,0.00,weatherlink.com 1.10,2013-01-10 14:40:00,
2013-01-10 09:55:00,74.6,71.0,30.29,ESE,114,2.0,7.0,88,0.00,,,0.00,weatherlink.com 1.10,2013-01-10 14:55:00,
2013-01-10 10:10:00,75.5,70.0,30.28,East,79,7.0,10.0,83,0.00,,,0.00,weatherlink.com 1.10,2013-01-10 15:10:00,
2013-01-10 10:25:00,76.6,69.0,30.27,ESE,104,5.0,13.0,78,0.00,,,0.00,weatherlink.com 1.10,2013-01-10 15:25:00,
2013-01-10 10:43:00,76.5,68.0,30.26,East,96,3.0,12.0,76,0.00,,,0.00,weatherlink.com 1.10,2013-01-10 15:43:00,
2013-01-10 10:55:00,77.5,68.0,30.25,East,83,4.0,13.0,73,0.00,,,0.00,weatherlink.com 1.10,2013-01-10 15:55:00,
2013-01-10 11:11:00,78.0,67.0,30.25,ENE,72,6.0,14.0,69,0.00,,,0.00,weatherlink.com 1.10,2013-01-10 16:11:00,
2013-01-10 11:26:00,79.0,67.0,30.23,ENE,76,11.0,16.0,66,0.00,,,0.00,weatherlink.com 1.10,2013-01-10 16:26:00,
2013-01-10 11:41:00,78.8,65.0,30.23,ENE,68,5.0,13.0,63,0.00,,,0.00,weatherlink.com 1.10,2013-01-10 16:41:00,
2013-01-10 11:56:00,79.1,66.0,30.22,East,83,6.0,13.0,64,0.00,,,0.00,weatherlink.com 1.10,2013-01-10 16:56:00,
2013-01-10 12:11:00,79.1,66.0,30.22,East,91,4.0,11.0,64,0.00,,,0.00,weatherlink.com 1.10,2013-01-10 17:11:00,
2013-01-10 12:26:00,79.6,66.0,30.21,ENE,61,3.0,12.0,64,0.00,,,0.00,weatherlink.com 1.10,2013-01-10 17:26:00,
2013-01-10 12:41:00,79.8,65.0,30.21,ESE,105,5.0,11.0,61,0.00,,,0.00,weatherlink.com 1.10,2013-01-10 17:41:00,
2013-01-10 12:56:00,79.5,65.0,30.21,ENE,65,4.0,10.0,62,0.00,,,0.00,weatherlink.com 1.10,2013-01-10 17:56:00,
2013-01-10 13:11:00,79.5,66.0,30.20,East,92,3.0,6.0,63,0.00,,,0.00,weatherlink.com 1.10,2013-01-10 18:11:00,
2013-01-10 13:26:00,79.3,66.0,30.20,East,83,2.0,8.0,64,0.00,,,0.00,weatherlink.com 1.10,2013-01-10 18:26:00,
2013-01-10 13:41:00,80.5,66.0,30.20,NW,324,3.0,7.0,62,0.00,,,0.00,weatherlink.com 1.10,2013-01-10 18:41:00,
2013-01-10 13:56:00,80.8,66.0,30.20,East,86,5.0,8.0,61,0.00,,,0.00,weatherlink.com 1.10,2013-01-10 18:56:00,
2013-01-10 14:11:00,81.9,67.0,30.20,NE,56,4.0,9.0,61,0.00,,,0.00,weatherlink.com 1.10,2013-01-10 19:11:00,
2013-01-10 14:27:00,80.7,66.0,30.20,ESE,107,5.0,10.0,61,0.00,,,0.00,weatherlink.com 1.10,2013-01-10 19:27:00,
2013-01-10 14:41:00,81.1,66.0,30.20,East,84,4.0,-999.0,61,-99.99,,,0.00,weatherlink.com 1.10,2013-01-10 19:41:00,
2013-01-10 14:56:00,82.3,66.0,30.20,East,87,5.0,9.0,59,0.00,,,0.00,weatherlink.com 1.10,2013-01-10 19:56:00,
2013-01-10 15:11:00,81.6,66.0,30.20,East,90,2.0,8.0,60,0.00,,,0.00,weatherlink.com 1.10,2013-01-10 20:11:00,
2013-01-10 15:26:00,80.0,66.0,30.21,North,358,3.0,7.0,62,0.00,,,0.00,weatherlink.com 1.10,2013-01-10 20:26:00,
2013-01-10 15:41:00,80.7,66.0,30.21,NE,41,1.0,5.0,62,0.00,,,0.00,weatherlink.com 1.10,2013-01-10 20:41:00,
2013-01-10 15:56:00,81.1,66.0,30.22,ENE,65,6.0,7.0,60,0.00,,,0.00,weatherlink.com 1.10,2013-01-10 20:56:00,
2013-01-10 16:11:00,81.2,66.0,30.22,NE,39,4.0,7.0,61,0.00,,,0.00,weatherlink.com 1.10,2013-01-10 21:11:00,
2013-01-10 16:26:00,80.1,66.0,30.22,East,92,2.0,8.0,62,0.00,,,0.00,weatherlink.com 1.10,2013-01-10 21:26:00,
2013-01-10 16:41:00,79.8,66.0,30.22,East,79,4.0,8.0,63,0.00,,,0.00,weatherlink.com 1.10,2013-01-10 21:41:00,
2013-01-10 17:11:00,78.1,66.0,30.23,ENE,68,6.0,7.0,66,0.00,,,0.00,weatherlink.com 1.10,2013-01-10 22:11:00,
2013-01-10 17:26:00,77.9,66.0,30.23,ENE,69,3.0,9.0,67,0.00,,,0.00,weatherlink.com 1.10,2013-01-10 22:26:00,
2013-01-10 17:41:00,77.1,66.0,30.23,East,86,3.0,6.0,68,0.00,,,0.00,weatherlink.com 1.10,2013-01-10 22:41:00,
2013-01-10 17:56:00,76.4,66.0,30.23,NE,46,1.0,9.0,69,0.00,,,0.00,weatherlink.com 1.10,2013-01-10 22:56:00,
2013-01-10 18:11:00,75.7,66.0,30.23,East,82,2.0,8.0,72,0.00,,,0.00,weatherlink.com 1.10,2013-01-10 23:11:00,
2013-01-10 18:26:00,75.1,66.0,30.23,ENE,74,2.0,6.0,73,0.00,,,0.00,weatherlink.com 1.10,2013-01-10 23:26:00,
2013-01-10 18:41:00,74.4,66.0,30.24,ENE,72,4.0,5.0,75,0.00,,,0.00,weatherlink.com 1.10,2013-01-10 23:41:00,
2013-01-10 18:56:00,74.0,66.0,30.24,ENE,60,4.0,7.0,76,0.00,,,0.00,weatherlink.com 1.10,2013-01-10 23:56:00,
2013-01-10 19:11:00,73.6,66.0,30.25,NE,51,2.0,11.0,77,0.00,,,0.00,weatherlink.com 1.10,2013-01-11 00:11:00,
2013-01-10 19:26:00,73.1,66.0,30.25,East,91,1.0,7.0,78,0.00,,,0.00,weatherlink.com 1.10,2013-01-11 00:26:00,
2013-01-10 19:41:00,72.8,66.0,30.25,East,89,3.0,8.0,79,0.00,,,0.00,weatherlink.com 1.10,2013-01-11 00:41:00,
2013-01-10 19:56:00,72.7,66.0,30.25,ENE,77,5.0,9.0,78,0.00,,,0.00,weatherlink.com 1.10,2013-01-11 00:56:00,
2013-01-10 20:11:00,72.4,65.0,30.25,ESE,109,1.0,7.0,78,0.00,,,0.00,weatherlink.com 1.10,2013-01-11 01:11:00,
2013-01-10 20:26:00,72.2,65.0,30.25,ENE,67,4.0,9.0,78,0.00,,,0.00,weatherlink.com 1.10,2013-01-11 01:26:00,
2013-01-10 20:41:00,71.9,65.0,30.26,East,79,4.0,7.0,79,0.00,,,0.00,weatherlink.com 1.10,2013-01-11 01:41:00,
2013-01-10 20:56:00,71.4,65.0,30.27,ESE,120,2.0,6.0,80,0.00,,,0.00,weatherlink.com 1.10,2013-01-11 01:56:00,
2013-01-10 21:11:00,71.0,65.0,30.27,ENE,77,3.0,6.0,81,0.00,,,0.00,weatherlink.com 1.10,2013-01-11 02:11:00,
2013-01-10 21:26:00,70.4,65.0,30.27,East,88,2.0,6.0,82,0.00,,,0.00,weatherlink.com 1.10,2013-01-11 02:26:00,
2013-01-10 21:41:00,69.7,65.0,30.27,ENE,75,5.0,6.0,84,0.00,,,0.00,weatherlink.com 1.10,2013-01-11 02:41:00,
2013-01-10 21:56:00,69.0,64.0,30.27,ENE,75,4.0,6.0,85,0.00,,,0.00,weatherlink.com 1.10,2013-01-11 02:56:00,
2013-01-10 22:11:00,68.5,64.0,30.27,East,82,1.0,7.0,86,0.00,,,0.00,weatherlink.com 1.10,2013-01-11 03:11:00,
2013-01-10 22:26:00,67.9,64.0,30.27,East,84,1.0,3.0,88,0.00,,,0.00,weatherlink.com 1.10,2013-01-11 03:26:00,
2013-01-10 22:42:00,67.3,64.0,30.27,ENE,69,0.0,3.0,88,0.00,,,0.00,weatherlink.com 1.10,2013-01-11 03:42:00,
2013-01-10 22:57:00,66.6,63.0,30.27,ENE,69,0.0,2.0,89,0.00,,,0.00,weatherlink.com 1.10,2013-01-11 03:57:00,
2013-01-10 23:12:00,65.7,63.0,30.27,East,91,0.0,0.0,91,0.00,,,0.00,weatherlink.com 1.10,2013-01-11 04:12:00,
2013-01-10 23:27:00,64.5,62.0,30.27,East,91,0.0,0.0,91,0.00,,,0.00,weatherlink.com 1.10,2013-01-11 04:27:00,
2013-01-10 23:42:00,63.9,62.0,30.27,East,91,0.0,0.0,94,0.00,,,0.00,weatherlink.com 1.10,2013-01-11 04:42:00,